x

West Oregon - 275nm West Of Coos Bay, Or (46002) Wave Buoy

6:50pm - Sat 23rd Aug 2014 All times are UTC.

  • Sig Wave height 5.2ft
  • Peak Period 6s
  • Average Period 5s
  • Wind
    22mph, 27mph gusts
  • Sea Temp 68°f
  • Air Temp 67°f
  • Sea Pressure 1023.4mb

More Historic Weather Station data

Upgrade to MSW Pro to gain access to the past 30 days of data for over 8000 Wavebouys and Weather Stations around the globe.

Join Pro

Comparision Forecast

View Surf forecast
   
Sat 08/23 6:50pm 5ft 6s 5s 22 27 mph 1023.4mb 68f 67f
5:50pm 6ft 7s 5s 20 22 mph 1023.6mb 68f 67f
4:50pm 6ft 6s 5s 20 25 mph 1023.6mb 68f 67f
3:50pm 6ft 6s 5s 20 25 mph 1023.5mb 68f 67f
2:50pm 6ft 6s 5s 22 27 mph 1023.3mb 68f 67f
1:50pm 6ft 6s 5s 20 25 mph 1023mb 68f 67f
12:50pm 5ft 6s 5s 20 25 mph 1023mb 68f 67f
11:50am 5.5ft 6s 5s 20 25 mph 1022.8mb 68f 66f
10:50am 6ft 5s 5s 16 20 mph 1023.1mb 68f 67f
9:50am 6ft 7s 5s 22 27 mph 1023mb 68f 67f
8:50am 5.5ft 6s 5s 18 22 mph 1023.2mb 68f 67f
7:50am 6ft 5s 5s 20 25 mph 1022.8mb 68f 67f
6:50am 5.5ft 6s 5s 20 25 mph 1022.9mb 68f 67f
5:50am 5ft 5s 5s 20 22 mph 1023.1mb 68f 67f
4:50am 5.5ft 8s 5s 20 25 mph 1022.8mb 68f 67f
3:50am 5.5ft 5s 5s 20 25 mph 1022.3mb 68f 67f
2:50am 5.5ft 7s 5s 20 22 mph 1022mb 69f 67f
1:50am 5ft 7s 5s 20 25 mph 1022mb 69f 68f
12:50am 5ft 8s 6s 16 20 mph 1021.9mb 69f 68f
Fri 08/22 11:50pm 5ft 8s 6s 18 20 mph 1021.9mb 69f 68f
10:50pm 5ft 8s 6s 16 20 mph 1021.9mb 69f 68f
9:50pm 5ft 8s 6s 16 20 mph 1021.8mb 69f 68f
8:50pm 5ft 6s 5s 16 18 mph 1021.8mb 69f 68f
7:50pm 6ft 7s 6s 16 20 mph 1021.6mb 68f 68f
6:50pm 5.5ft 8s 5s 18 20 mph 1021.4mb 68f 68f
5:50pm  -   -   -  16 20 mph 1020.9mb 68f 67f
4:50pm 6ft 7s 6s 16 20 mph 1020.8mb 68f 67f
3:50pm 5.5ft 7s 5s 16 18 mph 1020.4mb 68f 67f
2:50pm 5ft 7s 6s 16 18 mph 1020.1mb 68f 66f
1:50pm 6ft 7s 6s 18 20 mph 1019.6mb 68f 65f
12:50pm 5.5ft 8s 5s 16 18 mph 1019.3mb 68f 65f
11:50am 5.5ft 7s 5s 16 18 mph 1019.4mb 68f 66f
10:50am 5ft 8s 5s 16 18 mph 1019.5mb 69f 67f
9:50am 5ft 7s 5s 16 18 mph 1019.4mb 69f 67f
8:50am 5ft 7s 5s 20 25 mph 1019.4mb 69f 67f
7:50am 5ft 7s 5s 18 22 mph 1019.3mb 69f 67f
6:50am 5ft 7s 5s 20 25 mph 1019.2mb 69f 67f
5:50am 5ft 7s 5s 22 27 mph 1019.3mb 69f 67f
4:50am 5.5ft 8s 5s 18 20 mph 1019.2mb 69f 67f
3:50am 5.5ft 7s 5s 18 20 mph 1019mb 69f 68f
2:50am 5.5ft 7s 6s 18 20 mph 1018.9mb 69f 68f
1:50am 5.5ft 7s 6s 18 22 mph 1019.2mb 69f 67f
12:50am 5.5ft 7s 5s 20 25 mph 1019.2mb 69f 68f
Thu 08/21 11:50pm 5.5ft 8s 6s 18 22 mph 1019.4mb 69f 68f
10:50pm 5ft 7s 5s 18 20 mph 1019.7mb 69f 69f
9:50pm 5ft 7s 5s 20 22 mph 1020mb 69f 68f
8:50pm 5ft 7s 5s 18 22 mph 1020mb 69f 68f
7:50pm 5ft 7s 5s 18 22 mph 1020.1mb 69f 68f
6:50pm 5.5ft 7s 5s 16 20 mph 1020.3mb 69f 68f
5:50pm 5ft 8s 6s 16 20 mph 1020.2mb 69f 68f
4:50pm 5ft 7s 5s 18 20 mph 1020.1mb 69f 68f
3:50pm 5ft 7s 5s 16 18 mph 1020mb 69f 67f
2:50pm 5ft 7s 5s 18 22 mph 1019.8mb 69f 68f
1:50pm 4.5ft 7s 5s 18 20 mph 1019.4mb 69f 68f
12:50pm 4.5ft 15s 6s 18 20 mph 1019.2mb 69f 68f
11:50am 4.5ft 7s 5s 18 20 mph 1019.2mb 69f 68f
10:50am 4.5ft 7s 6s 13 18 mph 1019.4mb 69f 68f
9:50am 4.5ft 9s 6s 13 16 mph 1019.8mb 69f 68f
8:50am 4.5ft 7s 6s 11 16 mph 1020mb 69f 68f
7:50am 5ft 8s 6s 11 13 mph 1020mb 69f 68f
6:50am 5ft 8s 6s 11 16 mph 1020mb 69f 68f
5:50am 5ft 8s 6s 11 13 mph 1020.2mb 69f 68f
4:50am 5ft 8s 6s 13 18 mph 1020.1mb 69f 68f
3:50am 5ft 8s 6s 16 18 mph 1019.6mb 69f 67f
2:50am 5ft 7s 6s 16 18 mph 1019.4mb 69f 68f
1:50am 5ft 7s 6s 16 20 mph 1019.6mb 69f 68f
12:50am 5ft 8s 6s 13 16 mph 1019.5mb 69f 68f
Wed 08/20 11:50pm 5ft 7s 6s 16 18 mph 1019.7mb 69f 68f
10:50pm 5ft 7s 6s 18 20 mph 1019.6mb 69f 68f
9:50pm 5ft 7s 6s 16 18 mph 1019.8mb 69f 68f
8:50pm 5.5ft 7s 6s 11 16 mph 1019.7mb 69f 68f
7:50pm 5.5ft 7s 6s 13 16 mph 1019.8mb 68f 68f
6:50pm 6.5ft 7s 6s 13 16 mph 1019.5mb 68f 67f
5:50pm 6ft 7s 6s 16 18 mph 1019.2mb 68f 67f
4:50pm 6.5ft 7s 6s 13 18 mph 1019.1mb 68f 67f
3:50pm 6ft 7s 6s 16 18 mph 1018.7mb 68f 67f
2:50pm 6ft 7s 6s 18 20 mph 1018.4mb 68f 67f
1:50pm 6ft 7s 6s 16 20 mph 1018mb 68f 67f
12:50pm 6ft 6s 5s 18 20 mph 1017.7mb 68f 67f
11:50am 6ft 6s 5s 20 25 mph 1017.5mb 68f 67f
10:50am 5.5ft 6s 5s 20 22 mph 1017.3mb 68f 67f
9:50am  -   -   -  18 22 mph 1017.4mb 68f 67f
8:50am  -   -   -  20 25 mph 1017.4mb 68f 67f
7:50am 5.5ft 9s 5s 18 22 mph 1017.3mb 68f 67f
6:50am 5.5ft 9s 5s 20 25 mph 1017.2mb 68f 67f
5:50am 5ft 9s 5s 18 22 mph 1017.3mb 68f 67f
4:50am 5ft 6s 5s 18 22 mph 1017.3mb 68f 67f
3:50am 5ft 10s 6s 18 22 mph 1017.1mb 68f 67f
2:50am 5ft 10s 6s 18 20 mph 1016.9mb 68f 68f
1:50am 5.5ft 11s 6s 13 16 mph 1016.8mb 68f 68f
12:50am 5ft 10s 6s 16 18 mph 1017.1mb 68f 68f
Tue 08/19 11:50pm 5ft 11s 6s 18 20 mph 1017.3mb 68f 68f
10:50pm 5ft 7s 6s 16 18 mph 1017.7mb 68f 68f
9:50pm  -   -   -  18 20 mph 1018mb 68f 68f
8:50pm 5.5ft 7s 6s 18 20 mph 1018.3mb 68f 68f